Decoded Metar for LFLN (ST.-YAN in FRANCE) (IATA:N/A) | Meteo·Mobile Aviation Weather
aviador You're here:

LFLN Decoded Metar

ST.-YAN in FRANCE
Report Time2020-02-18 22:30:00
UTC Time2020-02-18 23:02:31
Flight Rules vfr VFR
Wind200° at 04 kt
W.Decomp.*RWY 15: 2.6 kt HW 3.1 kt RCW
Visibility9999 m
Phenomena:N/A
Clouds:Few 036 Hf
Broken 046 Hf
Overcast 056 Hf
Expected CloudBase > 2,400 ft AGL from Temp-Dew spread
Ceiling4,600 ft
Temp07°C (ISA -6)
Dew Point01°C (66% RH)
AAT3.7°C
QNH1029 hPa
Density Alt-417 ft
Elevation801 ft
Report Wrong Elevation
Raw Report
METAR LFLN 182230Z AUTO 20004KT 9999 FEW036 BKN046 OVC056 07/01 Q1029=

Extra information for LFLN:More info

Metar Taf Metar & Taf Last 4 Metars F.Rules Stats Wind Profile Meteogram Temp Stats Airport Information Weather charts Add Link Nearby VenuesMetar ALERT Operation Metar Decoded Social comments